sensor_id;sensor_type;location;lat;lon;timestamp;P1;durP1;ratioP1;P2;durP2;ratioP2
46463;SDS011;32161;48.148;-1.554;2023-05-10T00:00:56;12.52;;;2.13;;
46463;SDS011;32161;48.148;-1.554;2023-05-10T00:03:24;11.88;;;2.35;;
46463;SDS011;32161;48.148;-1.554;2023-05-10T00:05:52;19.40;;;3.22;;
46463;SDS011;32161;48.148;-1.554;2023-05-10T00:08:19;15.10;;;2.38;;
46463;SDS011;32161;48.148;-1.554;2023-05-10T00:10:47;15.68;;;2.85;;
46463;SDS011;32161;48.148;-1.554;2023-05-10T00:13:15;15.43;;;2.10;;
46463;SDS011;32161;48.148;-1.554;2023-05-10T00:15:44;10.80;;;2.08;;
46463;SDS011;32161;48.148;-1.554;2023-05-10T00:18:12;13.77;;;3.08;;
46463;SDS011;32161;48.148;-1.554;2023-05-10T00:20:39;18.33;;;3.13;;
46463;SDS011;32161;48.148;-1.554;2023-05-10T00:23:07;8.43;;;1.88;;
46463;SDS011;32161;48.148;-1.554;2023-05-10T00:25:34;15.02;;;2.42;;
46463;SDS011;32161;48.148;-1.554;2023-05-10T00:28:02;10.18;;;2.00;;
46463;SDS011;32161;48.148;-1.554;2023-05-10T00:30:30;15.57;;;2.25;;
46463;SDS011;32161;48.148;-1.554;2023-05-10T00:32:59;9.05;;;2.22;;
46463;SDS011;32161;48.148;-1.554;2023-05-10T00:35:26;15.43;;;2.60;;
46463;SDS011;32161;48.148;-1.554;2023-05-10T00:37:54;12.50;;;2.75;;
46463;SDS011;32161;48.148;-1.554;2023-05-10T00:40:22;16.83;;;2.15;;
46463;SDS011;32161;48.148;-1.554;2023-05-10T00:42:49;14.73;;;2.58;;
46463;SDS011;32161;48.148;-1.554;2023-05-10T00:45:17;15.07;;;2.30;;
46463;SDS011;32161;48.148;-1.554;2023-05-10T00:47:45;12.07;;;2.50;;
46463;SDS011;32161;48.148;-1.554;2023-05-10T00:50:14;9.10;;;2.22;;
46463;SDS011;32161;48.148;-1.554;2023-05-10T00:52:41;16.83;;;3.60;;
46463;SDS011;32161;48.148;-1.554;2023-05-10T00:55:10;13.23;;;2.33;;
46463;SDS011;32161;48.148;-1.554;2023-05-10T00:57:38;11.02;;;1.80;;
46463;SDS011;32161;48.148;-1.554;2023-05-10T01:00:07;13.90;;;2.10;;
46463;SDS011;32161;48.148;-1.554;2023-05-10T01:02:37;12.95;;;2.40;;
46463;SDS011;32161;48.148;-1.554;2023-05-10T01:05:05;22.92;;;4.13;;
46463;SDS011;32161;48.148;-1.554;2023-05-10T01:07:34;18.20;;;2.72;;
46463;SDS011;32161;48.148;-1.554;2023-05-10T01:10:02;18.70;;;2.35;;
46463;SDS011;32161;48.148;-1.554;2023-05-10T01:12:30;16.17;;;2.70;;
46463;SDS011;32161;48.148;-1.554;2023-05-10T01:14:58;18.08;;;2.05;;
46463;SDS011;32161;48.148;-1.554;2023-05-10T01:17:27;10.07;;;2.40;;
46463;SDS011;32161;48.148;-1.554;2023-05-10T01:19:55;11.35;;;2.20;;
46463;SDS011;32161;48.148;-1.554;2023-05-10T01:22:30;13.93;;;2.72;;
46463;SDS011;32161;48.148;-1.554;2023-05-10T01:29:41;19.27;;;2.23;;
46463;SDS011;32161;48.148;-1.554;2023-05-10T01:32:31;13.45;;;2.40;;
46463;SDS011;32161;48.148;-1.554;2023-05-10T01:35:08;14.95;;;3.05;;
46463;SDS011;32161;48.148;-1.554;2023-05-10T01:37:45;14.80;;;3.00;;
46463;SDS011;32161;48.148;-1.554;2023-05-10T01:40:26;17.98;;;4.07;;
46463;SDS011;32161;48.148;-1.554;2023-05-10T01:43:02;15.23;;;2.28;;
46463;SDS011;32161;48.148;-1.554;2023-05-10T01:45:36;16.35;;;2.55;;
46463;SDS011;32161;48.148;-1.554;2023-05-10T01:48:13;14.45;;;2.67;;
46463;SDS011;32161;48.148;-1.554;2023-05-10T01:50:41;11.55;;;2.50;;
46463;SDS011;32161;48.148;-1.554;2023-05-10T01:53:12;22.25;;;3.17;;
46463;SDS011;32161;48.148;-1.554;2023-05-10T01:55:45;16.70;;;2.75;;
46463;SDS011;32161;48.148;-1.554;2023-05-10T01:58:18;15.77;;;2.88;;
46463;SDS011;32161;48.148;-1.554;2023-05-10T02:00:51;22.48;;;4.53;;
46463;SDS011;32161;48.148;-1.554;2023-05-10T02:03:23;21.85;;;3.50;;
46463;SDS011;32161;48.148;-1.554;2023-05-10T02:05:52;21.73;;;3.17;;
46463;SDS011;32161;48.148;-1.554;2023-05-10T02:08:22;24.05;;;3.20;;
46463;SDS011;32161;48.148;-1.554;2023-05-10T02:10:53;13.88;;;2.88;;
46463;SDS011;32161;48.148;-1.554;2023-05-10T02:13:24;17.95;;;2.88;;
46463;SDS011;32161;48.148;-1.554;2023-05-10T02:15:53;24.42;;;4.40;;
46463;SDS011;32161;48.148;-1.554;2023-05-10T02:18:24;20.48;;;3.40;;
46463;SDS011;32161;48.148;-1.554;2023-05-10T02:20:53;18.63;;;2.67;;
46463;SDS011;32161;48.148;-1.554;2023-05-10T02:23:22;16.00;;;2.78;;
46463;SDS011;32161;48.148;-1.554;2023-05-10T02:25:52;17.92;;;2.95;;
46463;SDS011;32161;48.148;-1.554;2023-05-10T02:28:21;16.08;;;3.10;;
46463;SDS011;32161;48.148;-1.554;2023-05-10T02:30:52;11.30;;;2.07;;
46463;SDS011;32161;48.148;-1.554;2023-05-10T02:33:20;16.98;;;2.42;;
46463;SDS011;32161;48.148;-1.554;2023-05-10T02:35:51;16.77;;;3.00;;
46463;SDS011;32161;48.148;-1.554;2023-05-10T02:38:19;18.27;;;3.78;;
46463;SDS011;32161;48.148;-1.554;2023-05-10T02:40:49;18.63;;;4.00;;
46463;SDS011;32161;48.148;-1.554;2023-05-10T02:43:19;18.27;;;3.28;;
46463;SDS011;32161;48.148;-1.554;2023-05-10T02:45:51;16.20;;;2.55;;
46463;SDS011;32161;48.148;-1.554;2023-05-10T02:48:18;17.30;;;4.05;;
46463;SDS011;32161;48.148;-1.554;2023-05-10T02:50:46;13.40;;;2.92;;
46463;SDS011;32161;48.148;-1.554;2023-05-10T02:53:20;18.70;;;3.20;;
46463;SDS011;32161;48.148;-1.554;2023-05-10T02:55:57;17.83;;;2.72;;
46463;SDS011;32161;48.148;-1.554;2023-05-10T02:58:29;18.63;;;3.15;;
46463;SDS011;32161;48.148;-1.554;2023-05-10T03:00:56;18.60;;;2.90;;
46463;SDS011;32161;48.148;-1.554;2023-05-10T03:03:24;22.38;;;3.53;;
46463;SDS011;32161;48.148;-1.554;2023-05-10T03:05:51;14.05;;;2.95;;
46463;SDS011;32161;48.148;-1.554;2023-05-10T03:08:23;15.63;;;2.27;;
46463;SDS011;32161;48.148;-1.554;2023-05-10T03:10:55;16.33;;;2.78;;
46463;SDS011;32161;48.148;-1.554;2023-05-10T03:13:44;19.48;;;4.32;;
46463;SDS011;32161;48.148;-1.554;2023-05-10T03:16:24;16.65;;;3.80;;
46463;SDS011;32161;48.148;-1.554;2023-05-10T03:19:01;19.38;;;4.13;;
46463;SDS011;32161;48.148;-1.554;2023-05-10T03:21:38;20.75;;;2.88;;
46463;SDS011;32161;48.148;-1.554;2023-05-10T03:24:15;22.52;;;3.42;;
46463;SDS011;32161;48.148;-1.554;2023-05-10T03:26:46;15.48;;;2.72;;
46463;SDS011;32161;48.148;-1.554;2023-05-10T03:29:15;26.80;;;3.17;;
46463;SDS011;32161;48.148;-1.554;2023-05-10T03:31:43;15.82;;;3.00;;
46463;SDS011;32161;48.148;-1.554;2023-05-10T03:34:11;19.63;;;3.28;;
46463;SDS011;32161;48.148;-1.554;2023-05-10T03:36:38;16.33;;;2.65;;
46463;SDS011;32161;48.148;-1.554;2023-05-10T03:39:06;19.48;;;3.17;;
46463;SDS011;32161;48.148;-1.554;2023-05-10T03:41:35;15.40;;;3.55;;
46463;SDS011;32161;48.148;-1.554;2023-05-10T03:44:03;18.17;;;4.05;;
46463;SDS011;32161;48.148;-1.554;2023-05-10T03:46:30;15.95;;;2.90;;
46463;SDS011;32161;48.148;-1.554;2023-05-10T03:48:58;20.88;;;3.88;;
46463;SDS011;32161;48.148;-1.554;2023-05-10T03:51:26;13.07;;;2.80;;
46463;SDS011;32161;48.148;-1.554;2023-05-10T03:53:54;16.65;;;2.80;;
46463;SDS011;32161;48.148;-1.554;2023-05-10T03:56:21;15.73;;;2.95;;
46463;SDS011;32161;48.148;-1.554;2023-05-10T03:58:50;20.17;;;3.30;;
46463;SDS011;32161;48.148;-1.554;2023-05-10T04:01:18;14.15;;;2.85;;
46463;SDS011;32161;48.148;-1.554;2023-05-10T04:03:45;19.95;;;3.08;;
46463;SDS011;32161;48.148;-1.554;2023-05-10T04:06:13;21.45;;;2.83;;
46463;SDS011;32161;48.148;-1.554;2023-05-10T04:08:40;18.60;;;2.88;;
46463;SDS011;32161;48.148;-1.554;2023-05-10T04:11:08;19.67;;;3.13;;
46463;SDS011;32161;48.148;-1.554;2023-05-10T04:13:39;19.83;;;3.13;;
46463;SDS011;32161;48.148;-1.554;2023-05-10T04:16:09;16.02;;;3.17;;
46463;SDS011;32161;48.148;-1.554;2023-05-10T04:18:37;16.85;;;2.45;;
46463;SDS011;32161;48.148;-1.554;2023-05-10T04:21:10;20.08;;;3.30;;
46463;SDS011;32161;48.148;-1.554;2023-05-10T04:23:39;11.30;;;2.40;;
46463;SDS011;32161;48.148;-1.554;2023-05-10T04:26:07;17.23;;;3.05;;
46463;SDS011;32161;48.148;-1.554;2023-05-10T04:28:34;18.92;;;3.78;;
46463;SDS011;32161;48.148;-1.554;2023-05-10T04:31:02;13.98;;;2.97;;
46463;SDS011;32161;48.148;-1.554;2023-05-10T04:33:32;22.17;;;2.90;;
46463;SDS011;32161;48.148;-1.554;2023-05-10T04:36:00;16.33;;;2.97;;
46463;SDS011;32161;48.148;-1.554;2023-05-10T04:38:29;15.48;;;3.15;;
46463;SDS011;32161;48.148;-1.554;2023-05-10T04:41:03;20.45;;;4.32;;
46463;SDS011;32161;48.148;-1.554;2023-05-10T04:43:32;18.05;;;2.97;;
46463;SDS011;32161;48.148;-1.554;2023-05-10T04:46:00;23.35;;;4.05;;
46463;SDS011;32161;48.148;-1.554;2023-05-10T04:48:27;25.85;;;3.75;;
46463;SDS011;32161;48.148;-1.554;2023-05-10T04:50:57;12.85;;;2.75;;
46463;SDS011;32161;48.148;-1.554;2023-05-10T04:53:24;19.17;;;3.70;;
46463;SDS011;32161;48.148;-1.554;2023-05-10T04:55:52;21.33;;;3.72;;
46463;SDS011;32161;48.148;-1.554;2023-05-10T04:58:20;11.88;;;2.80;;
46463;SDS011;32161;48.148;-1.554;2023-05-10T05:00:47;26.23;;;3.00;;
46463;SDS011;32161;48.148;-1.554;2023-05-10T05:03:15;20.23;;;4.10;;
46463;SDS011;32161;48.148;-1.554;2023-05-10T05:05:43;16.80;;;2.97;;
46463;SDS011;32161;48.148;-1.554;2023-05-10T05:08:12;24.83;;;4.78;;
46463;SDS011;32161;48.148;-1.554;2023-05-10T05:10:39;19.92;;;3.40;;
46463;SDS011;32161;48.148;-1.554;2023-05-10T05:13:07;18.27;;;2.75;;
46463;SDS011;32161;48.148;-1.554;2023-05-10T05:15:34;10.90;;;2.53;;
46463;SDS011;32161;48.148;-1.554;2023-05-10T05:18:02;14.02;;;2.97;;
46463;SDS011;32161;48.148;-1.554;2023-05-10T05:20:31;16.10;;;3.30;;
46463;SDS011;32161;48.148;-1.554;2023-05-10T05:22:59;13.05;;;2.45;;
46463;SDS011;32161;48.148;-1.554;2023-05-10T05:25:28;16.73;;;2.90;;
46463;SDS011;32161;48.148;-1.554;2023-05-10T05:27:56;13.27;;;3.28;;
46463;SDS011;32161;48.148;-1.554;2023-05-10T05:30:23;11.43;;;2.70;;
46463;SDS011;32161;48.148;-1.554;2023-05-10T05:32:51;17.33;;;2.58;;
46463;SDS011;32161;48.148;-1.554;2023-05-10T05:35:18;13.63;;;2.67;;
46463;SDS011;32161;48.148;-1.554;2023-05-10T05:37:46;14.02;;;2.60;;
46463;SDS011;32161;48.148;-1.554;2023-05-10T05:40:14;16.35;;;2.75;;
46463;SDS011;32161;48.148;-1.554;2023-05-10T05:42:43;18.80;;;2.88;;
46463;SDS011;32161;48.148;-1.554;2023-05-10T05:45:10;14.07;;;2.95;;
46463;SDS011;32161;48.148;-1.554;2023-05-10T05:47:39;19.08;;;4.28;;
46463;SDS011;32161;48.148;-1.554;2023-05-10T05:50:07;13.38;;;2.63;;
46463;SDS011;32161;48.148;-1.554;2023-05-10T05:52:35;24.48;;;2.45;;
46463;SDS011;32161;48.148;-1.554;2023-05-10T05:55:03;18.75;;;3.58;;
46463;SDS011;32161;48.148;-1.554;2023-05-10T05:57:31;15.07;;;3.15;;
46463;SDS011;32161;48.148;-1.554;2023-05-10T06:00:00;21.70;;;3.40;;
46463;SDS011;32161;48.148;-1.554;2023-05-10T06:02:28;17.63;;;3.55;;
46463;SDS011;32161;48.148;-1.554;2023-05-10T06:04:56;20.90;;;3.25;;
46463;SDS011;32161;48.148;-1.554;2023-05-10T06:07:23;15.82;;;2.55;;
46463;SDS011;32161;48.148;-1.554;2023-05-10T06:09:51;24.55;;;3.40;;
46463;SDS011;32161;48.148;-1.554;2023-05-10T06:12:19;18.50;;;3.60;;
46463;SDS011;32161;48.148;-1.554;2023-05-10T06:14:46;13.30;;;3.00;;
46463;SDS011;32161;48.148;-1.554;2023-05-10T06:17:15;19.60;;;4.07;;
46463;SDS011;32161;48.148;-1.554;2023-05-10T06:19:43;24.42;;;3.58;;
46463;SDS011;32161;48.148;-1.554;2023-05-10T06:22:10;17.85;;;3.50;;
46463;SDS011;32161;48.148;-1.554;2023-05-10T06:24:38;19.60;;;3.40;;
46463;SDS011;32161;48.148;-1.554;2023-05-10T06:27:06;16.92;;;3.30;;
46463;SDS011;32161;48.148;-1.554;2023-05-10T06:29:34;20.08;;;3.75;;
46463;SDS011;32161;48.148;-1.554;2023-05-10T06:32:01;16.42;;;3.00;;
46463;SDS011;32161;48.148;-1.554;2023-05-10T06:34:30;15.70;;;3.03;;
46463;SDS011;32161;48.148;-1.554;2023-05-10T06:36:58;22.63;;;3.80;;
46463;SDS011;32161;48.148;-1.554;2023-05-10T06:39:25;19.88;;;2.92;;
46463;SDS011;32161;48.148;-1.554;2023-05-10T06:41:54;10.95;;;2.50;;
46463;SDS011;32161;48.148;-1.554;2023-05-10T06:44:22;20.00;;;4.00;;
46463;SDS011;32161;48.148;-1.554;2023-05-10T06:46:49;16.60;;;3.60;;
46463;SDS011;32161;48.148;-1.554;2023-05-10T06:49:18;24.80;;;4.40;;
46463;SDS011;32161;48.148;-1.554;2023-05-10T06:51:47;14.65;;;3.10;;
46463;SDS011;32161;48.148;-1.554;2023-05-10T06:54:15;15.43;;;3.13;;
46463;SDS011;32161;48.148;-1.554;2023-05-10T06:56:42;14.77;;;3.35;;
46463;SDS011;32161;48.148;-1.554;2023-05-10T06:59:10;19.50;;;3.55;;
46463;SDS011;32161;48.148;-1.554;2023-05-10T07:01:38;17.63;;;3.50;;
46463;SDS011;32161;48.148;-1.554;2023-05-10T07:04:06;18.05;;;3.53;;
46463;SDS011;32161;48.148;-1.554;2023-05-10T07:06:33;14.82;;;3.25;;
46463;SDS011;32161;48.148;-1.554;2023-05-10T07:09:02;21.90;;;4.40;;
46463;SDS011;32161;48.148;-1.554;2023-05-10T07:11:30;19.33;;;3.03;;
46463;SDS011;32161;48.148;-1.554;2023-05-10T07:13:57;19.48;;;3.13;;
46463;SDS011;32161;48.148;-1.554;2023-05-10T07:16:25;15.80;;;3.78;;
46463;SDS011;32161;48.148;-1.554;2023-05-10T07:18:53;22.20;;;3.53;;
46463;SDS011;32161;48.148;-1.554;2023-05-10T07:21:21;28.13;;;4.40;;
46463;SDS011;32161;48.148;-1.554;2023-05-10T07:23:49;18.08;;;4.10;;
46463;SDS011;32161;48.148;-1.554;2023-05-10T07:26:18;23.27;;;3.70;;
46463;SDS011;32161;48.148;-1.554;2023-05-10T07:28:47;19.10;;;3.42;;
46463;SDS011;32161;48.148;-1.554;2023-05-10T07:31:14;16.73;;;3.05;;
46463;SDS011;32161;48.148;-1.554;2023-05-10T07:33:42;19.00;;;2.78;;
46463;SDS011;32161;48.148;-1.554;2023-05-10T07:36:09;26.45;;;4.57;;
46463;SDS011;32161;48.148;-1.554;2023-05-10T07:38:37;17.65;;;3.03;;
46463;SDS011;32161;48.148;-1.554;2023-05-10T07:41:05;16.77;;;3.53;;
46463;SDS011;32161;48.148;-1.554;2023-05-10T07:43:34;11.85;;;3.15;;
46463;SDS011;32161;48.148;-1.554;2023-05-10T07:46:02;28.40;;;3.83;;
46463;SDS011;32161;48.148;-1.554;2023-05-10T07:48:30;19.55;;;3.72;;
46463;SDS011;32161;48.148;-1.554;2023-05-10T07:50:58;11.57;;;2.50;;
46463;SDS011;32161;48.148;-1.554;2023-05-10T07:53:25;16.63;;;3.40;;
46463;SDS011;32161;48.148;-1.554;2023-05-10T07:55:54;17.60;;;3.67;;
46463;SDS011;32161;48.148;-1.554;2023-05-10T07:58:24;12.13;;;2.95;;
46463;SDS011;32161;48.148;-1.554;2023-05-10T08:00:54;18.55;;;2.75;;
46463;SDS011;32161;48.148;-1.554;2023-05-10T08:03:21;12.23;;;2.30;;
46463;SDS011;32161;48.148;-1.554;2023-05-10T08:05:49;16.80;;;2.78;;
46463;SDS011;32161;48.148;-1.554;2023-05-10T08:08:16;15.77;;;3.20;;
46463;SDS011;32161;48.148;-1.554;2023-05-10T08:10:45;13.20;;;2.83;;
46463;SDS011;32161;48.148;-1.554;2023-05-10T08:13:12;11.52;;;2.33;;
46463;SDS011;32161;48.148;-1.554;2023-05-10T08:15:40;11.65;;;1.95;;
46463;SDS011;32161;48.148;-1.554;2023-05-10T08:18:09;10.43;;;1.98;;
46463;SDS011;32161;48.148;-1.554;2023-05-10T08:20:36;7.60;;;2.00;;
46463;SDS011;32161;48.148;-1.554;2023-05-10T08:23:04;16.17;;;3.30;;
46463;SDS011;32161;48.148;-1.554;2023-05-10T08:25:31;15.90;;;3.58;;
46463;SDS011;32161;48.148;-1.554;2023-05-10T08:27:59;13.27;;;2.25;;
46463;SDS011;32161;48.148;-1.554;2023-05-10T08:30:26;9.10;;;2.85;;
46463;SDS011;32161;48.148;-1.554;2023-05-10T08:32:54;14.52;;;2.88;;
46463;SDS011;32161;48.148;-1.554;2023-05-10T08:35:23;15.52;;;3.72;;
46463;SDS011;32161;48.148;-1.554;2023-05-10T08:37:51;15.65;;;3.30;;
46463;SDS011;32161;48.148;-1.554;2023-05-10T08:40:19;16.40;;;2.70;;
46463;SDS011;32161;48.148;-1.554;2023-05-10T08:42:49;8.85;;;2.55;;
46463;SDS011;32161;48.148;-1.554;2023-05-10T08:45:24;15.02;;;3.08;;
46463;SDS011;32161;48.148;-1.554;2023-05-10T08:47:58;14.48;;;3.10;;
46463;SDS011;32161;48.148;-1.554;2023-05-10T08:50:29;13.98;;;2.90;;
46463;SDS011;32161;48.148;-1.554;2023-05-10T08:52:59;14.02;;;2.45;;
46463;SDS011;32161;48.148;-1.554;2023-05-10T08:55:30;12.80;;;3.15;;
46463;SDS011;32161;48.148;-1.554;2023-05-10T09:00:29;12.65;;;2.65;;
46463;SDS011;32161;48.148;-1.554;2023-05-10T09:02:58;14.38;;;3.40;;
46463;SDS011;32161;48.148;-1.554;2023-05-10T09:05:26;9.07;;;2.45;;
46463;SDS011;32161;48.148;-1.554;2023-05-10T09:07:55;14.48;;;2.28;;
46463;SDS011;32161;48.148;-1.554;2023-05-10T09:10:24;19.70;;;3.53;;
46463;SDS011;32161;48.148;-1.554;2023-05-10T09:12:54;12.57;;;3.00;;
46463;SDS011;32161;48.148;-1.554;2023-05-10T09:15:24;10.88;;;2.33;;
46463;SDS011;32161;48.148;-1.554;2023-05-10T09:17:52;9.82;;;2.10;;
46463;SDS011;32161;48.148;-1.554;2023-05-10T09:20:20;11.90;;;2.95;;
46463;SDS011;32161;48.148;-1.554;2023-05-10T09:22:48;8.27;;;2.30;;
46463;SDS011;32161;48.148;-1.554;2023-05-10T09:25:17;9.98;;;2.22;;
46463;SDS011;32161;48.148;-1.554;2023-05-10T09:27:46;11.43;;;2.42;;
46463;SDS011;32161;48.148;-1.554;2023-05-10T09:30:15;12.32;;;2.95;;
46463;SDS011;32161;48.148;-1.554;2023-05-10T09:32:49;9.23;;;2.05;;
46463;SDS011;32161;48.148;-1.554;2023-05-10T09:35:17;11.25;;;2.10;;
46463;SDS011;32161;48.148;-1.554;2023-05-10T09:37:48;9.60;;;2.53;;
46463;SDS011;32161;48.148;-1.554;2023-05-10T09:40:19;12.70;;;2.65;;
46463;SDS011;32161;48.148;-1.554;2023-05-10T09:42:52;7.97;;;2.03;;
46463;SDS011;32161;48.148;-1.554;2023-05-10T09:45:20;11.52;;;2.20;;
46463;SDS011;32161;48.148;-1.554;2023-05-10T09:47:50;12.90;;;2.72;;
46463;SDS011;32161;48.148;-1.554;2023-05-10T09:50:18;9.98;;;2.38;;
46463;SDS011;32161;48.148;-1.554;2023-05-10T09:52:47;10.80;;;2.17;;
46463;SDS011;32161;48.148;-1.554;2023-05-10T09:55:17;14.80;;;3.47;;
46463;SDS011;32161;48.148;-1.554;2023-05-10T09:57:48;9.52;;;2.50;;
46463;SDS011;32161;48.148;-1.554;2023-05-10T10:00:24;12.15;;;2.80;;
46463;SDS011;32161;48.148;-1.554;2023-05-10T10:02:54;10.25;;;2.45;;
46463;SDS011;32161;48.148;-1.554;2023-05-10T10:05:27;8.40;;;1.83;;
46463;SDS011;32161;48.148;-1.554;2023-05-10T10:07:55;6.97;;;1.77;;
46463;SDS011;32161;48.148;-1.554;2023-05-10T10:10:26;11.75;;;1.88;;
46463;SDS011;32161;48.148;-1.554;2023-05-10T10:12:54;9.20;;;2.13;;
46463;SDS011;32161;48.148;-1.554;2023-05-10T10:15:22;6.32;;;1.98;;
46463;SDS011;32161;48.148;-1.554;2023-05-10T10:17:51;7.57;;;2.15;;
46463;SDS011;32161;48.148;-1.554;2023-05-10T10:20:20;10.40;;;2.40;;
46463;SDS011;32161;48.148;-1.554;2023-05-10T10:22:50;7.45;;;1.80;;
46463;SDS011;32161;48.148;-1.554;2023-05-10T10:25:18;7.60;;;2.38;;
46463;SDS011;32161;48.148;-1.554;2023-05-10T10:27:59;8.18;;;1.98;;
46463;SDS011;32161;48.148;-1.554;2023-05-10T10:30:42;4.93;;;1.55;;
46463;SDS011;32161;48.148;-1.554;2023-05-10T10:33:18;7.18;;;2.20;;
46463;SDS011;32161;48.148;-1.554;2023-05-10T10:36:18;5.85;;;1.63;;
46463;SDS011;32161;48.148;-1.554;2023-05-10T10:38:56;6.55;;;1.75;;
46463;SDS011;32161;48.148;-1.554;2023-05-10T10:41:29;5.43;;;1.70;;
46463;SDS011;32161;48.148;-1.554;2023-05-10T10:47:24;6.53;;;2.17;;
46463;SDS011;32161;48.148;-1.554;2023-05-10T10:50:05;6.28;;;1.77;;
46463;SDS011;32161;48.148;-1.554;2023-05-10T10:52:34;5.03;;;1.48;;
46463;SDS011;32161;48.148;-1.554;2023-05-10T10:55:04;6.95;;;1.52;;
46463;SDS011;32161;48.148;-1.554;2023-05-10T10:57:42;6.53;;;2.05;;
46463;SDS011;32161;48.148;-1.554;2023-05-10T11:00:21;3.60;;;1.20;;
46463;SDS011;32161;48.148;-1.554;2023-05-10T11:02:52;5.25;;;1.50;;
46463;SDS011;32161;48.148;-1.554;2023-05-10T11:05:23;3.75;;;1.42;;
46463;SDS011;32161;48.148;-1.554;2023-05-10T11:08:11;3.22;;;1.42;;
46463;SDS011;32161;48.148;-1.554;2023-05-10T11:10:53;8.15;;;1.35;;
46463;SDS011;32161;48.148;-1.554;2023-05-10T11:13:32;4.18;;;1.20;;
46463;SDS011;32161;48.148;-1.554;2023-05-10T11:16:13;7.20;;;1.50;;
46463;SDS011;32161;48.148;-1.554;2023-05-10T11:18:59;5.15;;;1.40;;
46463;SDS011;32161;48.148;-1.554;2023-05-10T11:21:29;2.58;;;1.33;;
46463;SDS011;32161;48.148;-1.554;2023-05-10T11:23:58;2.63;;;1.10;;
46463;SDS011;32161;48.148;-1.554;2023-05-10T11:26:31;6.63;;;1.38;;
46463;SDS011;32161;48.148;-1.554;2023-05-10T11:29:00;3.60;;;0.90;;
46463;SDS011;32161;48.148;-1.554;2023-05-10T11:31:31;3.38;;;0.95;;
46463;SDS011;32161;48.148;-1.554;2023-05-10T11:33:59;2.13;;;0.95;;
46463;SDS011;32161;48.148;-1.554;2023-05-10T11:36:28;3.47;;;1.08;;
46463;SDS011;32161;48.148;-1.554;2023-05-10T11:39:02;2.05;;;0.80;;
46463;SDS011;32161;48.148;-1.554;2023-05-10T11:41:31;3.65;;;1.10;;
46463;SDS011;32161;48.148;-1.554;2023-05-10T11:43:59;4.95;;;1.30;;
46463;SDS011;32161;48.148;-1.554;2023-05-10T11:46:27;4.25;;;1.00;;
46463;SDS011;32161;48.148;-1.554;2023-05-10T11:48:57;6.03;;;1.33;;
46463;SDS011;32161;48.148;-1.554;2023-05-10T11:51:33;3.50;;;1.00;;
46463;SDS011;32161;48.148;-1.554;2023-05-10T11:54:05;1.00;;;0.70;;
46463;SDS011;32161;48.148;-1.554;2023-05-10T11:56:34;4.22;;;1.17;;
46463;SDS011;32161;48.148;-1.554;2023-05-10T11:59:03;5.88;;;1.70;;
46463;SDS011;32161;48.148;-1.554;2023-05-10T12:01:30;3.85;;;1.35;;
46463;SDS011;32161;48.148;-1.554;2023-05-10T12:04:00;7.25;;;1.98;;
46463;SDS011;32161;48.148;-1.554;2023-05-10T12:06:28;2.58;;;1.20;;
46463;SDS011;32161;48.148;-1.554;2023-05-10T12:08:58;7.40;;;1.23;;
46463;SDS011;32161;48.148;-1.554;2023-05-10T12:11:26;2.30;;;1.17;;
46463;SDS011;32161;48.148;-1.554;2023-05-10T12:13:55;11.27;;;1.60;;
46463;SDS011;32161;48.148;-1.554;2023-05-10T12:16:24;4.57;;;1.02;;
46463;SDS011;32161;48.148;-1.554;2023-05-10T12:18:55;4.25;;;1.63;;
46463;SDS011;32161;48.148;-1.554;2023-05-10T12:21:26;2.42;;;0.68;;
46463;SDS011;32161;48.148;-1.554;2023-05-10T12:23:59;2.30;;;0.75;;
46463;SDS011;32161;48.148;-1.554;2023-05-10T12:26:29;2.25;;;0.70;;
46463;SDS011;32161;48.148;-1.554;2023-05-10T12:29:11;1.15;;;0.82;;
46463;SDS011;32161;48.148;-1.554;2023-05-10T12:31:53;4.90;;;1.35;;
46463;SDS011;32161;48.148;-1.554;2023-05-10T12:34:26;5.57;;;1.05;;
46463;SDS011;32161;48.148;-1.554;2023-05-10T12:36:59;4.88;;;1.20;;
46463;SDS011;32161;48.148;-1.554;2023-05-10T12:39:37;4.68;;;1.13;;
46463;SDS011;32161;48.148;-1.554;2023-05-10T12:42:06;4.95;;;1.10;;
46463;SDS011;32161;48.148;-1.554;2023-05-10T12:44:34;6.45;;;1.20;;
46463;SDS011;32161;48.148;-1.554;2023-05-10T12:47:01;2.72;;;1.00;;
46463;SDS011;32161;48.148;-1.554;2023-05-10T12:49:29;3.80;;;0.98;;
46463;SDS011;32161;48.148;-1.554;2023-05-10T12:51:58;2.15;;;1.17;;
46463;SDS011;32161;48.148;-1.554;2023-05-10T12:54:26;4.90;;;1.25;;
46463;SDS011;32161;48.148;-1.554;2023-05-10T12:56:53;4.18;;;1.60;;
46463;SDS011;32161;48.148;-1.554;2023-05-10T12:59:21;4.15;;;1.02;;
46463;SDS011;32161;48.148;-1.554;2023-05-10T13:01:48;3.33;;;1.10;;
46463;SDS011;32161;48.148;-1.554;2023-05-10T13:04:16;3.00;;;0.88;;
46463;SDS011;32161;48.148;-1.554;2023-05-10T13:06:44;5.28;;;1.13;;
46463;SDS011;32161;48.148;-1.554;2023-05-10T13:09:13;5.15;;;1.13;;
46463;SDS011;32161;48.148;-1.554;2023-05-10T13:11:41;5.55;;;1.15;;
46463;SDS011;32161;48.148;-1.554;2023-05-10T13:14:08;2.65;;;1.38;;
46463;SDS011;32161;48.148;-1.554;2023-05-10T13:16:36;4.95;;;1.10;;
46463;SDS011;32161;48.148;-1.554;2023-05-10T13:19:03;6.45;;;1.65;;
46463;SDS011;32161;48.148;-1.554;2023-05-10T13:21:31;4.72;;;1.30;;
46463;SDS011;32161;48.148;-1.554;2023-05-10T13:23:58;2.38;;;0.85;;
46463;SDS011;32161;48.148;-1.554;2023-05-10T13:26:28;6.57;;;1.10;;
46463;SDS011;32161;48.148;-1.554;2023-05-10T13:28:55;4.55;;;1.00;;
46463;SDS011;32161;48.148;-1.554;2023-05-10T13:31:23;5.35;;;1.33;;
46463;SDS011;32161;48.148;-1.554;2023-05-10T13:33:51;4.50;;;1.33;;
46463;SDS011;32161;48.148;-1.554;2023-05-10T13:36:18;4.20;;;1.40;;
46463;SDS011;32161;48.148;-1.554;2023-05-10T13:38:46;5.00;;;1.52;;
46463;SDS011;32161;48.148;-1.554;2023-05-10T13:41:14;3.80;;;1.17;;
46463;SDS011;32161;48.148;-1.554;2023-05-10T13:43:43;5.35;;;1.80;;
46463;SDS011;32161;48.148;-1.554;2023-05-10T13:46:10;4.43;;;1.63;;
46463;SDS011;32161;48.148;-1.554;2023-05-10T13:48:38;6.28;;;1.20;;
46463;SDS011;32161;48.148;-1.554;2023-05-10T13:51:05;3.83;;;1.20;;
46463;SDS011;32161;48.148;-1.554;2023-05-10T13:53:33;4.82;;;0.98;;
46463;SDS011;32161;48.148;-1.554;2023-05-10T13:56:01;5.05;;;1.42;;
46463;SDS011;32161;48.148;-1.554;2023-05-10T13:58:29;5.55;;;1.00;;
46463;SDS011;32161;48.148;-1.554;2023-05-10T14:00:58;3.15;;;0.65;;
46463;SDS011;32161;48.148;-1.554;2023-05-10T14:03:25;4.43;;;0.93;;
46463;SDS011;32161;48.148;-1.554;2023-05-10T14:05:53;3.65;;;0.60;;
46463;SDS011;32161;48.148;-1.554;2023-05-10T14:08:21;2.35;;;0.80;;
46463;SDS011;32161;48.148;-1.554;2023-05-10T14:10:48;3.05;;;0.80;;
46463;SDS011;32161;48.148;-1.554;2023-05-10T14:13:17;5.72;;;1.00;;
46463;SDS011;32161;48.148;-1.554;2023-05-10T14:15:45;3.25;;;1.15;;
46463;SDS011;32161;48.148;-1.554;2023-05-10T14:18:14;5.00;;;0.75;;
46463;SDS011;32161;48.148;-1.554;2023-05-10T14:20:41;2.22;;;0.80;;
46463;SDS011;32161;48.148;-1.554;2023-05-10T14:23:09;7.25;;;2.13;;
46463;SDS011;32161;48.148;-1.554;2023-05-10T14:25:36;6.30;;;1.02;;
46463;SDS011;32161;48.148;-1.554;2023-05-10T14:28:04;2.90;;;0.90;;
46463;SDS011;32161;48.148;-1.554;2023-05-10T14:30:32;5.10;;;1.30;;
46463;SDS011;32161;48.148;-1.554;2023-05-10T14:33:00;5.95;;;0.93;;
46463;SDS011;32161;48.148;-1.554;2023-05-10T14:35:30;1.55;;;0.60;;
46463;SDS011;32161;48.148;-1.554;2023-05-10T14:37:58;1.25;;;0.60;;
46463;SDS011;32161;48.148;-1.554;2023-05-10T14:40:25;5.90;;;1.10;;
46463;SDS011;32161;48.148;-1.554;2023-05-10T14:42:53;2.70;;;0.60;;
46463;SDS011;32161;48.148;-1.554;2023-05-10T14:45:21;4.00;;;0.63;;
46463;SDS011;32161;48.148;-1.554;2023-05-10T14:47:49;1.63;;;0.68;;
46463;SDS011;32161;48.148;-1.554;2023-05-10T14:50:17;4.03;;;0.93;;